sensor_id;sensor_type;location;lat;lon;timestamp;P1;durP1;ratioP1;P2;durP2;ratioP2
33954;SDS011;20233;50.804;7.126;2024-03-25T00:01:32;12.13;;;2.88;;
33954;SDS011;20233;50.804;7.126;2024-03-25T00:03:58;11.02;;;2.50;;
33954;SDS011;20233;50.804;7.126;2024-03-25T00:06:23;11.30;;;2.55;;
33954;SDS011;20233;50.804;7.126;2024-03-25T00:08:49;11.93;;;2.88;;
33954;SDS011;20233;50.804;7.126;2024-03-25T00:11:14;12.60;;;2.97;;
33954;SDS011;20233;50.804;7.126;2024-03-25T00:13:40;17.25;;;2.83;;
33954;SDS011;20233;50.804;7.126;2024-03-25T00:16:05;12.40;;;2.53;;
33954;SDS011;20233;50.804;7.126;2024-03-25T00:18:31;16.02;;;2.72;;
33954;SDS011;20233;50.804;7.126;2024-03-25T00:20:57;12.48;;;2.45;;
33954;SDS011;20233;50.804;7.126;2024-03-25T00:23:23;16.98;;;4.57;;
33954;SDS011;20233;50.804;7.126;2024-03-25T00:25:48;14.32;;;3.33;;
33954;SDS011;20233;50.804;7.126;2024-03-25T00:28:14;10.40;;;2.80;;
33954;SDS011;20233;50.804;7.126;2024-03-25T00:30:39;15.52;;;2.15;;
33954;SDS011;20233;50.804;7.126;2024-03-25T00:33:05;13.48;;;2.00;;
33954;SDS011;20233;50.804;7.126;2024-03-25T00:35:31;10.43;;;2.30;;
33954;SDS011;20233;50.804;7.126;2024-03-25T00:38:00;10.65;;;2.38;;
33954;SDS011;20233;50.804;7.126;2024-03-25T00:40:26;13.02;;;2.15;;
33954;SDS011;20233;50.804;7.126;2024-03-25T00:42:51;21.02;;;3.92;;
33954;SDS011;20233;50.804;7.126;2024-03-25T00:45:17;12.80;;;2.42;;
33954;SDS011;20233;50.804;7.126;2024-03-25T00:47:42;16.10;;;2.40;;
33954;SDS011;20233;50.804;7.126;2024-03-25T00:50:08;17.02;;;2.97;;
33954;SDS011;20233;50.804;7.126;2024-03-25T00:52:34;12.55;;;2.33;;
33954;SDS011;20233;50.804;7.126;2024-03-25T00:55:00;12.05;;;2.03;;
33954;SDS011;20233;50.804;7.126;2024-03-25T00:57:26;15.57;;;4.32;;
33954;SDS011;20233;50.804;7.126;2024-03-25T00:59:51;14.18;;;2.60;;
33954;SDS011;20233;50.804;7.126;2024-03-25T01:02:17;18.27;;;3.05;;
33954;SDS011;20233;50.804;7.126;2024-03-25T01:04:42;13.00;;;2.80;;
33954;SDS011;20233;50.804;7.126;2024-03-25T01:07:08;13.70;;;2.78;;
33954;SDS011;20233;50.804;7.126;2024-03-25T01:09:34;13.55;;;2.70;;
33954;SDS011;20233;50.804;7.126;2024-03-25T01:12:00;15.80;;;3.17;;
33954;SDS011;20233;50.804;7.126;2024-03-25T01:14:25;17.83;;;3.53;;
33954;SDS011;20233;50.804;7.126;2024-03-25T01:16:51;29.77;;;4.03;;
33954;SDS011;20233;50.804;7.126;2024-03-25T01:19:17;20.83;;;3.50;;
33954;SDS011;20233;50.804;7.126;2024-03-25T01:21:43;16.83;;;3.15;;
33954;SDS011;20233;50.804;7.126;2024-03-25T01:24:09;11.18;;;2.42;;
33954;SDS011;20233;50.804;7.126;2024-03-25T01:26:35;11.65;;;3.38;;
33954;SDS011;20233;50.804;7.126;2024-03-25T01:29:00;12.43;;;3.28;;
33954;SDS011;20233;50.804;7.126;2024-03-25T01:31:26;21.67;;;6.18;;
33954;SDS011;20233;50.804;7.126;2024-03-25T01:33:52;17.38;;;3.67;;
33954;SDS011;20233;50.804;7.126;2024-03-25T01:36:18;15.20;;;3.05;;
33954;SDS011;20233;50.804;7.126;2024-03-25T01:38:44;18.63;;;3.60;;
33954;SDS011;20233;50.804;7.126;2024-03-25T01:41:10;16.92;;;3.30;;
33954;SDS011;20233;50.804;7.126;2024-03-25T01:43:36;15.57;;;3.33;;
33954;SDS011;20233;50.804;7.126;2024-03-25T01:46:02;17.08;;;5.15;;
33954;SDS011;20233;50.804;7.126;2024-03-25T01:48:28;16.08;;;2.75;;
33954;SDS011;20233;50.804;7.126;2024-03-25T01:50:54;17.23;;;3.08;;
33954;SDS011;20233;50.804;7.126;2024-03-25T01:53:20;16.40;;;2.70;;
33954;SDS011;20233;50.804;7.126;2024-03-25T01:55:46;15.95;;;3.60;;
33954;SDS011;20233;50.804;7.126;2024-03-25T01:58:13;15.52;;;2.05;;
33954;SDS011;20233;50.804;7.126;2024-03-25T02:00:39;13.30;;;2.40;;
33954;SDS011;20233;50.804;7.126;2024-03-25T02:03:04;17.13;;;3.70;;
33954;SDS011;20233;50.804;7.126;2024-03-25T02:05:31;14.30;;;1.98;;
33954;SDS011;20233;50.804;7.126;2024-03-25T02:07:56;12.75;;;2.35;;
33954;SDS011;20233;50.804;7.126;2024-03-25T02:10:23;15.18;;;2.33;;
33954;SDS011;20233;50.804;7.126;2024-03-25T02:12:49;17.63;;;2.08;;
33954;SDS011;20233;50.804;7.126;2024-03-25T02:15:15;11.30;;;2.33;;
33954;SDS011;20233;50.804;7.126;2024-03-25T02:17:41;11.60;;;1.85;;
33954;SDS011;20233;50.804;7.126;2024-03-25T02:20:06;13.15;;;2.05;;
33954;SDS011;20233;50.804;7.126;2024-03-25T02:22:33;14.25;;;2.58;;
33954;SDS011;20233;50.804;7.126;2024-03-25T02:25:05;10.32;;;1.63;;
33954;SDS011;20233;50.804;7.126;2024-03-25T02:27:36;13.88;;;1.77;;
33954;SDS011;20233;50.804;7.126;2024-03-25T02:30:09;15.50;;;3.10;;
33954;SDS011;20233;50.804;7.126;2024-03-25T02:32:38;19.40;;;2.80;;
33954;SDS011;20233;50.804;7.126;2024-03-25T02:35:09;16.85;;;2.08;;
33954;SDS011;20233;50.804;7.126;2024-03-25T02:37:38;18.10;;;2.85;;
33954;SDS011;20233;50.804;7.126;2024-03-25T02:40:04;11.70;;;2.40;;
33954;SDS011;20233;50.804;7.126;2024-03-25T02:42:32;14.65;;;1.88;;
33954;SDS011;20233;50.804;7.126;2024-03-25T02:44:58;12.07;;;2.05;;
33954;SDS011;20233;50.804;7.126;2024-03-25T02:47:24;12.02;;;1.85;;
33954;SDS011;20233;50.804;7.126;2024-03-25T02:49:49;13.95;;;2.50;;
33954;SDS011;20233;50.804;7.126;2024-03-25T02:52:16;13.30;;;1.95;;
33954;SDS011;20233;50.804;7.126;2024-03-25T02:54:42;18.98;;;2.55;;
33954;SDS011;20233;50.804;7.126;2024-03-25T02:57:07;13.95;;;2.55;;
33954;SDS011;20233;50.804;7.126;2024-03-25T02:59:33;15.55;;;2.70;;
33954;SDS011;20233;50.804;7.126;2024-03-25T03:01:58;14.32;;;2.40;;
33954;SDS011;20233;50.804;7.126;2024-03-25T03:04:24;13.38;;;2.10;;
33954;SDS011;20233;50.804;7.126;2024-03-25T03:06:49;14.10;;;3.08;;
33954;SDS011;20233;50.804;7.126;2024-03-25T03:09:15;12.57;;;1.83;;
33954;SDS011;20233;50.804;7.126;2024-03-25T03:11:41;15.68;;;2.70;;
33954;SDS011;20233;50.804;7.126;2024-03-25T03:14:06;16.70;;;1.88;;
33954;SDS011;20233;50.804;7.126;2024-03-25T03:16:32;11.07;;;2.00;;
33954;SDS011;20233;50.804;7.126;2024-03-25T03:18:58;15.98;;;2.58;;
33954;SDS011;20233;50.804;7.126;2024-03-25T03:21:23;16.40;;;2.47;;
33954;SDS011;20233;50.804;7.126;2024-03-25T03:23:49;17.30;;;2.13;;
33954;SDS011;20233;50.804;7.126;2024-03-25T03:26:14;14.43;;;2.55;;
33954;SDS011;20233;50.804;7.126;2024-03-25T03:28:40;14.07;;;2.33;;
33954;SDS011;20233;50.804;7.126;2024-03-25T03:31:06;10.65;;;1.88;;
33954;SDS011;20233;50.804;7.126;2024-03-25T03:33:31;20.08;;;3.85;;
33954;SDS011;20233;50.804;7.126;2024-03-25T03:35:57;13.80;;;2.83;;
33954;SDS011;20233;50.804;7.126;2024-03-25T03:38:23;12.82;;;2.30;;
33954;SDS011;20233;50.804;7.126;2024-03-25T03:40:58;18.25;;;3.25;;
33954;SDS011;20233;50.804;7.126;2024-03-25T03:43:24;16.02;;;2.47;;
33954;SDS011;20233;50.804;7.126;2024-03-25T03:45:50;16.52;;;2.13;;
33954;SDS011;20233;50.804;7.126;2024-03-25T03:48:15;16.30;;;2.08;;
33954;SDS011;20233;50.804;7.126;2024-03-25T03:50:41;19.80;;;2.17;;
33954;SDS011;20233;50.804;7.126;2024-03-25T03:53:07;11.68;;;2.30;;
33954;SDS011;20233;50.804;7.126;2024-03-25T03:55:33;14.68;;;1.70;;
33954;SDS011;20233;50.804;7.126;2024-03-25T03:57:58;17.83;;;2.88;;
33954;SDS011;20233;50.804;7.126;2024-03-25T04:00:24;13.52;;;2.42;;
33954;SDS011;20233;50.804;7.126;2024-03-25T04:02:49;19.15;;;2.90;;
33954;SDS011;20233;50.804;7.126;2024-03-25T04:05:15;17.23;;;2.55;;
33954;SDS011;20233;50.804;7.126;2024-03-25T04:07:40;14.73;;;2.35;;
33954;SDS011;20233;50.804;7.126;2024-03-25T04:10:06;12.23;;;1.75;;
33954;SDS011;20233;50.804;7.126;2024-03-25T04:12:32;12.57;;;2.65;;
33954;SDS011;20233;50.804;7.126;2024-03-25T04:14:57;18.02;;;1.77;;
33954;SDS011;20233;50.804;7.126;2024-03-25T04:17:23;16.08;;;2.20;;
33954;SDS011;20233;50.804;7.126;2024-03-25T04:19:49;11.68;;;1.83;;
33954;SDS011;20233;50.804;7.126;2024-03-25T04:22:15;15.90;;;1.90;;
33954;SDS011;20233;50.804;7.126;2024-03-25T04:24:41;17.63;;;2.28;;
33954;SDS011;20233;50.804;7.126;2024-03-25T04:27:07;14.10;;;2.25;;
33954;SDS011;20233;50.804;7.126;2024-03-25T04:29:33;12.15;;;2.25;;
33954;SDS011;20233;50.804;7.126;2024-03-25T04:31:58;18.05;;;1.98;;
33954;SDS011;20233;50.804;7.126;2024-03-25T04:34:24;8.82;;;2.42;;
33954;SDS011;20233;50.804;7.126;2024-03-25T04:36:49;13.50;;;2.58;;
33954;SDS011;20233;50.804;7.126;2024-03-25T04:39:15;13.90;;;2.83;;
33954;SDS011;20233;50.804;7.126;2024-03-25T04:41:40;13.48;;;2.38;;
33954;SDS011;20233;50.804;7.126;2024-03-25T04:44:06;13.70;;;1.70;;
33954;SDS011;20233;50.804;7.126;2024-03-25T04:46:31;15.40;;;2.55;;
33954;SDS011;20233;50.804;7.126;2024-03-25T04:48:57;13.98;;;2.13;;
33954;SDS011;20233;50.804;7.126;2024-03-25T04:51:22;15.05;;;2.25;;
33954;SDS011;20233;50.804;7.126;2024-03-25T04:53:48;13.93;;;2.55;;
33954;SDS011;20233;50.804;7.126;2024-03-25T04:56:14;11.38;;;2.13;;
33954;SDS011;20233;50.804;7.126;2024-03-25T04:58:39;13.20;;;1.80;;
33954;SDS011;20233;50.804;7.126;2024-03-25T05:01:05;15.38;;;1.70;;
33954;SDS011;20233;50.804;7.126;2024-03-25T05:03:30;13.48;;;1.88;;
33954;SDS011;20233;50.804;7.126;2024-03-25T05:05:56;11.35;;;2.72;;
33954;SDS011;20233;50.804;7.126;2024-03-25T05:08:21;11.68;;;1.83;;
33954;SDS011;20233;50.804;7.126;2024-03-25T05:10:47;11.80;;;2.90;;
33954;SDS011;20233;50.804;7.126;2024-03-25T05:13:12;12.40;;;2.05;;
33954;SDS011;20233;50.804;7.126;2024-03-25T05:15:38;16.83;;;2.03;;
33954;SDS011;20233;50.804;7.126;2024-03-25T05:18:03;14.02;;;1.85;;
33954;SDS011;20233;50.804;7.126;2024-03-25T05:20:29;12.15;;;2.03;;
33954;SDS011;20233;50.804;7.126;2024-03-25T05:22:55;13.70;;;2.38;;
33954;SDS011;20233;50.804;7.126;2024-03-25T05:25:21;17.13;;;2.47;;
33954;SDS011;20233;50.804;7.126;2024-03-25T05:27:53;22.85;;;3.05;;
33954;SDS011;20233;50.804;7.126;2024-03-25T05:30:19;11.90;;;2.78;;
33954;SDS011;20233;50.804;7.126;2024-03-25T05:32:44;10.20;;;1.92;;
33954;SDS011;20233;50.804;7.126;2024-03-25T05:35:10;13.70;;;2.83;;
33954;SDS011;20233;50.804;7.126;2024-03-25T05:37:35;14.68;;;2.72;;
33954;SDS011;20233;50.804;7.126;2024-03-25T05:40:02;13.85;;;2.67;;
33954;SDS011;20233;50.804;7.126;2024-03-25T05:42:28;16.60;;;2.67;;
33954;SDS011;20233;50.804;7.126;2024-03-25T05:44:53;17.10;;;3.67;;
33954;SDS011;20233;50.804;7.126;2024-03-25T05:47:19;14.27;;;2.80;;
33954;SDS011;20233;50.804;7.126;2024-03-25T05:49:46;15.50;;;2.72;;
33954;SDS011;20233;50.804;7.126;2024-03-25T05:52:12;17.90;;;3.78;;
33954;SDS011;20233;50.804;7.126;2024-03-25T05:54:37;13.35;;;2.95;;
33954;SDS011;20233;50.804;7.126;2024-03-25T05:57:03;18.42;;;3.15;;
33954;SDS011;20233;50.804;7.126;2024-03-25T05:59:29;10.85;;;2.88;;
33954;SDS011;20233;50.804;7.126;2024-03-25T06:01:54;13.82;;;3.40;;
33954;SDS011;20233;50.804;7.126;2024-03-25T06:04:20;15.07;;;2.88;;
33954;SDS011;20233;50.804;7.126;2024-03-25T06:06:45;14.50;;;4.05;;
33954;SDS011;20233;50.804;7.126;2024-03-25T06:09:11;14.00;;;4.32;;
33954;SDS011;20233;50.804;7.126;2024-03-25T06:11:36;15.30;;;3.65;;
33954;SDS011;20233;50.804;7.126;2024-03-25T06:14:02;14.85;;;4.05;;
33954;SDS011;20233;50.804;7.126;2024-03-25T06:16:27;13.05;;;3.70;;
33954;SDS011;20233;50.804;7.126;2024-03-25T06:18:53;11.55;;;2.95;;
33954;SDS011;20233;50.804;7.126;2024-03-25T06:21:18;14.02;;;2.33;;
33954;SDS011;20233;50.804;7.126;2024-03-25T06:23:44;14.02;;;2.80;;
33954;SDS011;20233;50.804;7.126;2024-03-25T06:26:10;10.48;;;2.80;;
33954;SDS011;20233;50.804;7.126;2024-03-25T06:28:35;14.23;;;3.50;;
33954;SDS011;20233;50.804;7.126;2024-03-25T06:31:01;10.15;;;2.58;;
33954;SDS011;20233;50.804;7.126;2024-03-25T06:33:45;14.00;;;2.88;;
33954;SDS011;20233;50.804;7.126;2024-03-25T06:36:29;15.50;;;4.00;;
33954;SDS011;20233;50.804;7.126;2024-03-25T06:38:55;13.05;;;2.35;;
33954;SDS011;20233;50.804;7.126;2024-03-25T06:41:20;14.73;;;3.22;;
33954;SDS011;20233;50.804;7.126;2024-03-25T06:43:46;12.98;;;2.88;;
33954;SDS011;20233;50.804;7.126;2024-03-25T06:46:11;10.85;;;3.15;;
33954;SDS011;20233;50.804;7.126;2024-03-25T06:48:37;12.88;;;3.22;;
33954;SDS011;20233;50.804;7.126;2024-03-25T06:51:02;23.80;;;2.95;;
33954;SDS011;20233;50.804;7.126;2024-03-25T06:53:28;14.85;;;2.70;;
33954;SDS011;20233;50.804;7.126;2024-03-25T06:55:56;14.88;;;3.72;;
33954;SDS011;20233;50.804;7.126;2024-03-25T06:58:28;9.98;;;2.78;;
33954;SDS011;20233;50.804;7.126;2024-03-25T07:00:54;17.20;;;4.50;;
33954;SDS011;20233;50.804;7.126;2024-03-25T07:03:21;9.10;;;2.40;;
33954;SDS011;20233;50.804;7.126;2024-03-25T07:05:48;11.43;;;2.30;;
33954;SDS011;20233;50.804;7.126;2024-03-25T07:08:17;15.15;;;3.00;;
33954;SDS011;20233;50.804;7.126;2024-03-25T07:10:44;13.30;;;2.42;;
33954;SDS011;20233;50.804;7.126;2024-03-25T07:13:10;15.52;;;2.42;;
33954;SDS011;20233;50.804;7.126;2024-03-25T07:15:37;15.13;;;2.13;;
33954;SDS011;20233;50.804;7.126;2024-03-25T07:18:03;11.30;;;2.30;;
33954;SDS011;20233;50.804;7.126;2024-03-25T07:20:29;13.85;;;1.90;;
33954;SDS011;20233;50.804;7.126;2024-03-25T07:22:55;10.48;;;2.20;;
33954;SDS011;20233;50.804;7.126;2024-03-25T07:25:21;10.77;;;2.50;;
33954;SDS011;20233;50.804;7.126;2024-03-25T07:27:47;8.77;;;2.15;;
33954;SDS011;20233;50.804;7.126;2024-03-25T07:30:16;11.13;;;1.95;;
33954;SDS011;20233;50.804;7.126;2024-03-25T07:32:42;7.65;;;1.55;;
33954;SDS011;20233;50.804;7.126;2024-03-25T07:35:09;9.80;;;3.03;;
33954;SDS011;20233;50.804;7.126;2024-03-25T07:37:36;11.00;;;2.60;;
33954;SDS011;20233;50.804;7.126;2024-03-25T07:40:02;16.52;;;3.55;;
33954;SDS011;20233;50.804;7.126;2024-03-25T07:42:29;10.93;;;2.28;;
33954;SDS011;20233;50.804;7.126;2024-03-25T07:44:55;9.00;;;2.15;;
33954;SDS011;20233;50.804;7.126;2024-03-25T07:47:21;12.27;;;2.03;;
33954;SDS011;20233;50.804;7.126;2024-03-25T07:49:46;14.48;;;2.88;;
33954;SDS011;20233;50.804;7.126;2024-03-25T07:52:12;14.32;;;2.70;;
33954;SDS011;20233;50.804;7.126;2024-03-25T07:54:38;11.50;;;2.30;;
33954;SDS011;20233;50.804;7.126;2024-03-25T07:57:04;8.60;;;2.55;;
33954;SDS011;20233;50.804;7.126;2024-03-25T07:59:30;11.07;;;3.28;;
33954;SDS011;20233;50.804;7.126;2024-03-25T08:01:55;12.82;;;3.03;;
33954;SDS011;20233;50.804;7.126;2024-03-25T08:04:21;15.40;;;2.67;;
33954;SDS011;20233;50.804;7.126;2024-03-25T08:06:46;10.90;;;2.28;;
33954;SDS011;20233;50.804;7.126;2024-03-25T08:09:12;9.80;;;1.65;;
33954;SDS011;20233;50.804;7.126;2024-03-25T08:11:40;6.82;;;2.38;;
33954;SDS011;20233;50.804;7.126;2024-03-25T08:14:06;11.27;;;2.13;;
33954;SDS011;20233;50.804;7.126;2024-03-25T08:16:31;11.48;;;2.33;;
33954;SDS011;20233;50.804;7.126;2024-03-25T08:18:57;12.73;;;2.53;;
33954;SDS011;20233;50.804;7.126;2024-03-25T08:21:22;10.13;;;2.45;;
33954;SDS011;20233;50.804;7.126;2024-03-25T08:23:48;8.73;;;1.90;;
33954;SDS011;20233;50.804;7.126;2024-03-25T08:26:13;15.75;;;2.13;;
33954;SDS011;20233;50.804;7.126;2024-03-25T08:28:39;19.15;;;3.85;;
33954;SDS011;20233;50.804;7.126;2024-03-25T08:31:05;10.35;;;2.67;;
33954;SDS011;20233;50.804;7.126;2024-03-25T08:33:30;12.50;;;2.22;;
33954;SDS011;20233;50.804;7.126;2024-03-25T08:35:56;9.63;;;2.15;;
33954;SDS011;20233;50.804;7.126;2024-03-25T08:38:22;9.38;;;1.50;;
33954;SDS011;20233;50.804;7.126;2024-03-25T08:40:47;13.93;;;2.00;;
33954;SDS011;20233;50.804;7.126;2024-03-25T08:43:13;13.52;;;1.67;;
33954;SDS011;20233;50.804;7.126;2024-03-25T08:45:39;13.15;;;1.60;;
33954;SDS011;20233;50.804;7.126;2024-03-25T08:48:05;10.38;;;1.10;;
33954;SDS011;20233;50.804;7.126;2024-03-25T08:50:31;11.07;;;1.88;;
33954;SDS011;20233;50.804;7.126;2024-03-25T08:52:57;10.32;;;1.58;;
33954;SDS011;20233;50.804;7.126;2024-03-25T08:55:22;16.02;;;1.85;;
33954;SDS011;20233;50.804;7.126;2024-03-25T08:57:48;15.07;;;0.95;;
33954;SDS011;20233;50.804;7.126;2024-03-25T09:00:14;10.38;;;1.48;;
33954;SDS011;20233;50.804;7.126;2024-03-25T09:02:40;11.05;;;1.65;;
33954;SDS011;20233;50.804;7.126;2024-03-25T09:05:06;8.20;;;1.13;;
33954;SDS011;20233;50.804;7.126;2024-03-25T09:07:35;10.48;;;1.58;;
33954;SDS011;20233;50.804;7.126;2024-03-25T09:10:01;9.93;;;1.20;;
33954;SDS011;20233;50.804;7.126;2024-03-25T09:12:45;11.20;;;0.90;;
33954;SDS011;20233;50.804;7.126;2024-03-25T09:15:10;13.93;;;1.48;;
33954;SDS011;20233;50.804;7.126;2024-03-25T09:17:36;7.35;;;0.70;;
33954;SDS011;20233;50.804;7.126;2024-03-25T09:20:02;8.70;;;1.20;;
33954;SDS011;20233;50.804;7.126;2024-03-25T09:22:30;8.05;;;1.15;;
33954;SDS011;20233;50.804;7.126;2024-03-25T09:24:55;11.23;;;1.50;;
33954;SDS011;20233;50.804;7.126;2024-03-25T09:27:21;9.93;;;1.00;;
33954;SDS011;20233;50.804;7.126;2024-03-25T09:29:46;8.90;;;1.27;;
33954;SDS011;20233;50.804;7.126;2024-03-25T09:32:12;8.57;;;1.00;;
33954;SDS011;20233;50.804;7.126;2024-03-25T09:34:38;9.88;;;1.08;;
33954;SDS011;20233;50.804;7.126;2024-03-25T09:37:03;12.85;;;1.25;;
33954;SDS011;20233;50.804;7.126;2024-03-25T09:39:29;10.23;;;1.52;;
33954;SDS011;20233;50.804;7.126;2024-03-25T09:41:55;14.60;;;2.78;;
33954;SDS011;20233;50.804;7.126;2024-03-25T09:44:23;9.32;;;1.08;;
33954;SDS011;20233;50.804;7.126;2024-03-25T09:46:50;22.20;;;3.70;;
33954;SDS011;20233;50.804;7.126;2024-03-25T09:49:16;12.57;;;1.95;;
33954;SDS011;20233;50.804;7.126;2024-03-25T09:51:42;20.85;;;4.13;;
33954;SDS011;20233;50.804;7.126;2024-03-25T09:54:08;14.20;;;2.85;;
33954;SDS011;20233;50.804;7.126;2024-03-25T09:56:34;12.20;;;1.23;;
33954;SDS011;20233;50.804;7.126;2024-03-25T09:59:02;8.23;;;1.20;;
33954;SDS011;20233;50.804;7.126;2024-03-25T10:01:28;14.23;;;1.98;;
33954;SDS011;20233;50.804;7.126;2024-03-25T10:03:54;10.43;;;1.50;;
33954;SDS011;20233;50.804;7.126;2024-03-25T10:06:20;7.03;;;0.82;;
33954;SDS011;20233;50.804;7.126;2024-03-25T10:08:45;9.73;;;1.23;;
33954;SDS011;20233;50.804;7.126;2024-03-25T10:11:11;15.82;;;2.45;;
33954;SDS011;20233;50.804;7.126;2024-03-25T10:13:40;8.45;;;1.50;;
33954;SDS011;20233;50.804;7.126;2024-03-25T10:16:06;9.93;;;0.98;;
33954;SDS011;20233;50.804;7.126;2024-03-25T10:18:32;11.02;;;1.20;;
33954;SDS011;20233;50.804;7.126;2024-03-25T10:20:58;7.03;;;0.57;;
33954;SDS011;20233;50.804;7.126;2024-03-25T10:23:24;6.45;;;1.02;;
33954;SDS011;20233;50.804;7.126;2024-03-25T10:25:51;8.90;;;1.00;;
33954;SDS011;20233;50.804;7.126;2024-03-25T10:28:18;7.68;;;0.65;;
33954;SDS011;20233;50.804;7.126;2024-03-25T10:30:43;7.78;;;0.68;;
33954;SDS011;20233;50.804;7.126;2024-03-25T10:33:09;6.88;;;0.52;;
33954;SDS011;20233;50.804;7.126;2024-03-25T10:35:35;8.65;;;1.00;;
33954;SDS011;20233;50.804;7.126;2024-03-25T10:38:03;13.35;;;2.08;;
33954;SDS011;20233;50.804;7.126;2024-03-25T10:40:39;7.90;;;1.15;;
33954;SDS011;20233;50.804;7.126;2024-03-25T10:43:06;4.63;;;0.65;;
33954;SDS011;20233;50.804;7.126;2024-03-25T10:45:49;8.27;;;1.58;;
33954;SDS011;20233;50.804;7.126;2024-03-25T10:48:19;5.65;;;0.60;;
33954;SDS011;20233;50.804;7.126;2024-03-25T10:50:48;5.20;;;0.70;;
33954;SDS011;20233;50.804;7.126;2024-03-25T10:53:17;3.53;;;0.57;;
33954;SDS011;20233;50.804;7.126;2024-03-25T10:55:53;9.05;;;1.02;;
33954;SDS011;20233;50.804;7.126;2024-03-25T10:58:23;4.78;;;0.98;;
33954;SDS011;20233;50.804;7.126;2024-03-25T11:00:48;8.55;;;1.00;;
33954;SDS011;20233;50.804;7.126;2024-03-25T11:03:17;3.75;;;1.15;;
33954;SDS011;20233;50.804;7.126;2024-03-25T11:05:43;8.45;;;1.83;;
33954;SDS011;20233;50.804;7.126;2024-03-25T11:08:09;15.40;;;1.67;;
33954;SDS011;20233;50.804;7.126;2024-03-25T11:10:40;40.88;;;3.78;;
33954;SDS011;20233;50.804;7.126;2024-03-25T11:13:27;6.22;;;0.75;;
33954;SDS011;20233;50.804;7.126;2024-03-25T11:15:52;12.68;;;1.10;;
33954;SDS011;20233;50.804;7.126;2024-03-25T11:18:21;10.15;;;1.42;;
33954;SDS011;20233;50.804;7.126;2024-03-25T11:20:59;13.05;;;0.73;;
33954;SDS011;20233;50.804;7.126;2024-03-25T11:23:25;11.65;;;0.85;;
33954;SDS011;20233;50.804;7.126;2024-03-25T11:25:54;42.97;;;4.18;;
33954;SDS011;20233;50.804;7.126;2024-03-25T11:28:26;13.30;;;1.10;;
33954;SDS011;20233;50.804;7.126;2024-03-25T11:30:52;7.43;;;0.90;;
33954;SDS011;20233;50.804;7.126;2024-03-25T11:33:19;5.75;;;1.08;;
33954;SDS011;20233;50.804;7.126;2024-03-25T11:35:47;3.92;;;0.60;;
33954;SDS011;20233;50.804;7.126;2024-03-25T11:38:13;6.45;;;0.88;;
33954;SDS011;20233;50.804;7.126;2024-03-25T11:40:40;7.30;;;0.77;;
33954;SDS011;20233;50.804;7.126;2024-03-25T11:43:08;10.00;;;0.90;;
33954;SDS011;20233;50.804;7.126;2024-03-25T11:45:35;12.98;;;1.50;;
33954;SDS011;20233;50.804;7.126;2024-03-25T11:48:01;6.95;;;1.08;;
33954;SDS011;20233;50.804;7.126;2024-03-25T11:50:27;4.90;;;0.80;;
33954;SDS011;20233;50.804;7.126;2024-03-25T11:52:53;8.52;;;0.52;;
33954;SDS011;20233;50.804;7.126;2024-03-25T11:55:18;5.18;;;0.80;;
33954;SDS011;20233;50.804;7.126;2024-03-25T11:57:44;5.28;;;0.45;;
33954;SDS011;20233;50.804;7.126;2024-03-25T12:00:10;6.72;;;0.80;;
33954;SDS011;20233;50.804;7.126;2024-03-25T12:02:42;5.63;;;0.60;;
33954;SDS011;20233;50.804;7.126;2024-03-25T12:05:08;5.72;;;0.60;;
33954;SDS011;20233;50.804;7.126;2024-03-25T12:07:34;4.68;;;0.47;;
33954;SDS011;20233;50.804;7.126;2024-03-25T12:10:00;6.13;;;0.73;;
33954;SDS011;20233;50.804;7.126;2024-03-25T12:12:45;3.90;;;0.88;;
33954;SDS011;20233;50.804;7.126;2024-03-25T12:15:10;4.72;;;0.88;;
33954;SDS011;20233;50.804;7.126;2024-03-25T12:17:36;7.80;;;0.95;;
33954;SDS011;20233;50.804;7.126;2024-03-25T12:20:03;6.43;;;0.75;;
33954;SDS011;20233;50.804;7.126;2024-03-25T12:22:30;5.60;;;1.00;;
33954;SDS011;20233;50.804;7.126;2024-03-25T12:24:57;4.82;;;0.70;;
33954;SDS011;20233;50.804;7.126;2024-03-25T12:27:24;9.13;;;1.10;;
33954;SDS011;20233;50.804;7.126;2024-03-25T12:32:31;6.10;;;0.70;;
33954;SDS011;20233;50.804;7.126;2024-03-25T12:35:01;4.40;;;0.45;;
33954;SDS011;20233;50.804;7.126;2024-03-25T12:37:26;5.60;;;0.40;;
33954;SDS011;20233;50.804;7.126;2024-03-25T12:39:52;7.25;;;1.00;;
33954;SDS011;20233;50.804;7.126;2024-03-25T12:42:18;5.88;;;1.60;;
33954;SDS011;20233;50.804;7.126;2024-03-25T12:44:44;8.95;;;0.55;;
33954;SDS011;20233;50.804;7.126;2024-03-25T12:47:10;5.28;;;0.57;;
33954;SDS011;20233;50.804;7.126;2024-03-25T12:49:36;4.53;;;1.25;;
33954;SDS011;20233;50.804;7.126;2024-03-25T12:52:04;2.97;;;0.30;;
33954;SDS011;20233;50.804;7.126;2024-03-25T12:54:30;4.85;;;0.50;;
33954;SDS011;20233;50.804;7.126;2024-03-25T12:56:56;9.90;;;0.50;;
33954;SDS011;20233;50.804;7.126;2024-03-25T12:59:21;6.30;;;0.50;;
33954;SDS011;20233;50.804;7.126;2024-03-25T13:01:47;4.10;;;0.50;;
33954;SDS011;20233;50.804;7.126;2024-03-25T13:04:13;6.10;;;0.68;;
33954;SDS011;20233;50.804;7.126;2024-03-25T13:06:38;7.88;;;0.55;;
33954;SDS011;20233;50.804;7.126;2024-03-25T13:09:04;5.32;;;0.98;;
33954;SDS011;20233;50.804;7.126;2024-03-25T13:11:29;6.18;;;0.50;;
33954;SDS011;20233;50.804;7.126;2024-03-25T13:13:55;5.40;;;0.73;;
33954;SDS011;20233;50.804;7.126;2024-03-25T13:16:20;4.05;;;0.57;;
33954;SDS011;20233;50.804;7.126;2024-03-25T13:18:46;4.40;;;0.38;;
33954;SDS011;20233;50.804;7.126;2024-03-25T13:21:11;5.18;;;0.80;;
33954;SDS011;20233;50.804;7.126;2024-03-25T13:23:37;6.82;;;0.40;;
33954;SDS011;20233;50.804;7.126;2024-03-25T13:26:02;12.05;;;0.93;;
33954;SDS011;20233;50.804;7.126;2024-03-25T13:28:29;2.72;;;0.50;;
33954;SDS011;20233;50.804;7.126;2024-03-25T13:30:54;3.35;;;0.40;;
33954;SDS011;20233;50.804;7.126;2024-03-25T13:33:20;9.75;;;0.70;;
33954;SDS011;20233;50.804;7.126;2024-03-25T13:35:45;7.85;;;0.90;;
33954;SDS011;20233;50.804;7.126;2024-03-25T13:38:12;5.75;;;0.45;;
33954;SDS011;20233;50.804;7.126;2024-03-25T13:40:37;5.65;;;0.60;;
33954;SDS011;20233;50.804;7.126;2024-03-25T13:43:03;13.43;;;1.48;;
33954;SDS011;20233;50.804;7.126;2024-03-25T13:45:31;5.90;;;0.30;;
33954;SDS011;20233;50.804;7.126;2024-03-25T13:47:57;4.85;;;0.50;;
33954;SDS011;20233;50.804;7.126;2024-03-25T13:50:22;3.22;;;0.50;;
33954;SDS011;20233;50.804;7.126;2024-03-25T13:52:48;2.65;;;0.70;;
33954;SDS011;20233;50.804;7.126;2024-03-25T13:55:14;13.05;;;1.02;;
33954;SDS011;20233;50.804;7.126;2024-03-25T13:57:39;5.63;;;0.30;;
33954;SDS011;20233;50.804;7.126;2024-03-25T14:00:05;8.50;;;0.80;;
33954;SDS011;20233;50.804;7.126;2024-03-25T14:02:33;4.78;;;0.50;;
33954;SDS011;20233;50.804;7.126;2024-03-25T14:05:01;2.15;;;0.47;;
33954;SDS011;20233;50.804;7.126;2024-03-25T14:07:26;5.40;;;0.55;;
33954;SDS011;20233;50.804;7.126;2024-03-25T14:09:52;2.50;;;0.35;;
33954;SDS011;20233;50.804;7.126;2024-03-25T14:12:18;3.40;;;0.32;;
33954;SDS011;20233;50.804;7.126;2024-03-25T14:14:43;4.80;;;0.40;;
33954;SDS011;20233;50.804;7.126;2024-03-25T14:17:09;4.63;;;0.43;;
33954;SDS011;20233;50.804;7.126;2024-03-25T14:19:34;3.22;;;0.40;;
33954;SDS011;20233;50.804;7.126;2024-03-25T14:22:00;4.15;;;0.40;;
33954;SDS011;20233;50.804;7.126;2024-03-25T14:24:26;4.35;;;0.52;;
33954;SDS011;20233;50.804;7.126;2024-03-25T14:26:51;2.58;;;0.30;;
33954;SDS011;20233;50.804;7.126;2024-03-25T14:29:17;3.63;;;0.30;;
33954;SDS011;20233;50.804;7.126;2024-03-25T14:31:42;3.42;;;0.50;;
33954;SDS011;20233;50.804;7.126;2024-03-25T14:34:08;3.20;;;0.75;;
33954;SDS011;20233;50.804;7.126;2024-03-25T14:36:34;2.33;;;0.35;;